Time;durP1;ratioP1;P1;durP2;ratioP2;P2;SDS_P1;SDS_P2;PMS_P1;PMS_P2;Temp;Humidity;BMP_temperature;BMP_pressure;BME280_temperature;BME280_humidity;BME280_pressure;Samples;Min_cycle;Max_cycle;Signal;HPM_P1;HPM_P2
2023/04/23 00:00:16;;;;;;;54.20;32.90;;;12.20;99.90;;;;;;5137552;27;20476;-71
2023/04/23 00:02:48;;;;;;;53.78;33.88;;;12.10;99.90;;;;;;5134975;27;20618;-70
2023/04/23 00:05:15;;;;;;;51.83;32.88;;;12.10;99.90;;;;;;5133891;27;20042;-71
2023/04/23 00:07:41;;;;;;;54.83;33.58;;;12.00;99.90;;;;;;5134956;27;20031;-71
2023/04/23 00:10:08;;;;;;;50.90;33.55;;;11.90;99.90;;;;;;5135226;27;20039;-71
2023/04/23 00:12:34;;;;;;;55.55;35.45;;;11.90;99.90;;;;;;5134762;27;20039;-71
2023/04/23 00:15:00;;;;;;;57.13;35.45;;;11.80;99.90;;;;;;5135026;27;20031;-71
2023/04/23 00:17:27;;;;;;;54.38;35.83;;;11.70;99.90;;;;;;5135237;27;20039;-71
2023/04/23 00:19:53;;;;;;;58.60;34.50;;;11.80;99.90;;;;;;5135131;27;20023;-71
2023/04/23 00:22:19;;;;;;;51.13;32.38;;;11.70;99.90;;;;;;5133413;27;20015;-71
2023/04/23 00:24:45;;;;;;;52.95;32.83;;;11.70;99.90;;;;;;5133855;27;20025;-71
2023/04/23 00:27:11;;;;;;;50.67;34.15;;;11.70;99.90;;;;;;5136889;27;20023;-71
2023/04/23 00:29:37;;;;;;;48.85;34.40;;;11.70;99.90;;;;;;5133024;27;20019;-71
2023/04/23 00:32:03;;;;;;;45.75;31.27;;;11.70;99.90;;;;;;5132301;27;20524;-71
2023/04/23 00:34:29;;;;;;;46.92;32.58;;;11.70;99.90;;;;;;5134264;27;20058;-71
2023/04/23 00:36:54;;;;;;;49.35;32.35;;;11.60;99.90;;;;;;5134781;27;20062;-71
2023/04/23 00:39:21;;;;;;;47.55;32.25;;;11.60;99.90;;;;;;5134733;27;20030;-72
2023/04/23 00:41:47;;;;;;;46.17;30.98;;;11.60;99.90;;;;;;5131743;27;20027;-70
2023/04/23 00:44:13;;;;;;;50.85;32.65;;;11.50;99.90;;;;;;5135070;27;20099;-71
2023/04/23 00:46:39;;;;;;;47.03;33.95;;;11.50;99.90;;;;;;5133779;27;20491;-71
2023/04/23 00:49:05;;;;;;;49.75;33.35;;;11.50;99.90;;;;;;5133291;27;20023;-70
2023/04/23 00:51:33;;;;;;;42.72;30.42;;;11.50;99.90;;;;;;5134839;27;20026;-70
2023/04/23 00:53:59;;;;;;;49.97;33.63;;;11.40;99.90;;;;;;5132994;27;20464;-70
2023/04/23 00:56:26;;;;;;;44.58;29.58;;;11.40;99.90;;;;;;5134585;27;20042;-70
2023/04/23 00:58:52;;;;;;;45.55;28.98;;;11.50;99.90;;;;;;5134629;27;20007;-71
2023/04/23 01:01:19;;;;;;;43.22;29.55;;;11.30;99.90;;;;;;5134024;27;20034;-70
2023/04/23 01:03:49;;;;;;;44.05;27.27;;;11.30;99.90;;;;;;5132636;27;20035;-71
2023/04/23 01:06:16;;;;;;;50.58;32.72;;;11.30;99.90;;;;;;5133906;27;20026;-70
2023/04/23 01:08:43;;;;;;;42.67;29.27;;;11.30;99.90;;;;;;5132509;27;20015;-71
2023/04/23 01:11:13;;;;;;;42.92;30.50;;;11.30;99.90;;;;;;5133941;27;20487;-70
2023/04/23 01:13:39;;;;;;;42.60;29.20;;;11.20;99.90;;;;;;5133619;27;20484;-70
2023/04/23 01:16:05;;;;;;;43.75;28.77;;;11.20;99.90;;;;;;5134126;27;20027;-70
2023/04/23 01:18:31;;;;;;;43.45;29.42;;;11.20;99.90;;;;;;5130853;27;20015;-71
2023/04/23 01:20:57;;;;;;;43.33;32.35;;;11.10;99.90;;;;;;5133068;27;20644;-71
2023/04/23 01:23:23;;;;;;;48.92;31.67;;;11.00;99.90;;;;;;5133434;27;20018;-71
2023/04/23 01:25:49;;;;;;;50.67;32.90;;;11.00;99.90;;;;;;5135198;27;20475;-71
2023/04/23 01:28:15;;;;;;;48.53;31.30;;;11.10;99.90;;;;;;5133212;27;20020;-71
2023/04/23 01:30:44;;;;;;;56.90;35.17;;;11.10;99.90;;;;;;5133016;27;20060;-71
2023/04/23 01:33:10;;;;;;;45.63;31.63;;;11.20;99.90;;;;;;5132962;27;20015;-71
2023/04/23 01:35:37;;;;;;;50.45;33.75;;;11.20;99.90;;;;;;5133860;27;20034;-71
2023/04/23 01:38:03;;;;;;;70.95;38.28;;;11.20;99.90;;;;;;5132328;27;20046;-70
2023/04/23 01:40:29;;;;;;;50.42;32.85;;;11.20;99.90;;;;;;5133634;27;20539;-71
2023/04/23 01:42:56;;;;;;;57.95;36.03;;;11.20;99.90;;;;;;5132561;27;20023;-71
2023/04/23 01:45:23;;;;;;;45.38;31.48;;;11.20;99.90;;;;;;5133412;27;20449;-71
2023/04/23 01:47:49;;;;;;;49.20;33.95;;;11.20;99.90;;;;;;5133763;27;20023;-71
2023/04/23 01:50:15;;;;;;;50.17;31.95;;;11.30;99.90;;;;;;5133762;27;20054;-71
2023/04/23 01:52:41;;;;;;;44.97;30.27;;;11.30;99.90;;;;;;5133629;27;20080;-71
2023/04/23 01:55:08;;;;;;;46.38;33.03;;;11.40;99.90;;;;;;5133153;27;20019;-71
2023/04/23 01:57:34;;;;;;;52.50;32.95;;;11.40;99.90;;;;;;5132453;27;20019;-71
2023/04/23 02:00:10;;;;;;;44.88;31.10;;;11.40;99.90;;;;;;5133309;27;20058;-70
2023/04/23 02:02:38;;;;;;;47.72;31.63;;;11.50;99.90;;;;;;5132801;27;20019;-70
2023/04/23 02:05:08;;;;;;;49.95;33.72;;;11.50;99.90;;;;;;5130407;27;20020;-71
2023/04/23 02:07:35;;;;;;;53.90;32.75;;;11.50;99.90;;;;;;5134943;27;20027;-70
2023/04/23 02:10:01;;;;;;;60.28;33.67;;;11.40;99.90;;;;;;5131735;27;20016;-71
2023/04/23 02:12:27;;;;;;;46.97;31.33;;;11.40;99.90;;;;;;5132112;27;20060;-71
2023/04/23 02:14:53;;;;;;;47.80;32.17;;;11.50;99.90;;;;;;5132943;27;20039;-71
2023/04/23 02:17:22;;;;;;;48.75;34.45;;;11.50;99.90;;;;;;5133390;27;20169;-71
2023/04/23 02:19:49;;;;;;;48.08;33.13;;;11.50;99.90;;;;;;5133339;27;20094;-71
2023/04/23 02:22:15;;;;;;;54.47;33.72;;;11.40;99.90;;;;;;5132446;27;20540;-71
2023/04/23 02:24:43;;;;;;;48.53;31.77;;;11.40;99.90;;;;;;5132279;27;20029;-71
2023/04/23 02:27:09;;;;;;;52.20;33.63;;;11.40;99.90;;;;;;5131269;28;20019;-71
2023/04/23 02:29:35;;;;;;;51.75;35.22;;;11.40;99.90;;;;;;5133415;27;20023;-71
2023/04/23 02:32:02;;;;;;;47.75;33.13;;;11.50;99.90;;;;;;5131197;27;20042;-71
2023/04/23 02:34:28;;;;;;;53.80;34.70;;;11.50;99.90;;;;;;5132383;27;20058;-71
2023/04/23 02:36:54;;;;;;;54.38;34.38;;;11.50;99.90;;;;;;5133033;27;20051;-70
2023/04/23 02:39:20;;;;;;;60.97;35.85;;;11.50;99.90;;;;;;5131663;28;20401;-71
2023/04/23 02:41:45;;;;;;;53.13;33.47;;;11.50;99.90;;;;;;5132314;28;20495;-71
2023/04/23 02:44:11;;;;;;;53.85;32.90;;;11.50;99.90;;;;;;5130983;28;20016;-70
2023/04/23 02:46:37;;;;;;;49.15;33.17;;;11.50;99.90;;;;;;5132477;27;20475;-71
2023/04/23 02:49:03;;;;;;;42.08;29.70;;;11.50;99.90;;;;;;5132917;28;20026;-71
2023/04/23 02:51:30;;;;;;;45.85;31.08;;;11.50;99.90;;;;;;5131535;27;20023;-71
2023/04/23 02:53:56;;;;;;;39.28;28.92;;;11.30;99.90;;;;;;5132773;27;20032;-71
2023/04/23 02:56:22;;;;;;;51.60;31.92;;;11.30;99.90;;;;;;5133603;27;20008;-70
2023/04/23 02:58:48;;;;;;;44.72;31.27;;;11.30;99.90;;;;;;5132894;27;20023;-70
2023/04/23 03:01:14;;;;;;;47.42;30.45;;;11.40;99.90;;;;;;5133271;28;20016;-71
2023/04/23 03:03:40;;;;;;;50.45;31.27;;;11.40;99.90;;;;;;5132414;28;20026;-70
2023/04/23 03:06:06;;;;;;;54.00;31.85;;;11.30;99.90;;;;;;5133021;27;20027;-71
2023/04/23 03:08:32;;;;;;;46.38;31.92;;;11.30;99.90;;;;;;5133145;27;20095;-71
2023/04/23 03:10:58;;;;;;;41.30;28.67;;;11.30;99.90;;;;;;5132653;27;20031;-71
2023/04/23 03:13:24;;;;;;;41.83;30.42;;;11.30;99.90;;;;;;5131970;28;20036;-71
2023/04/23 03:15:51;;;;;;;46.08;30.05;;;11.40;99.90;;;;;;5132875;27;20054;-71
2023/04/23 03:18:17;;;;;;;51.17;33.08;;;11.40;99.90;;;;;;5132692;27;20030;-71
2023/04/23 03:20:43;;;;;;;47.45;30.60;;;11.40;99.90;;;;;;5132673;28;20027;-71
2023/04/23 03:23:08;;;;;;;44.95;31.50;;;11.30;99.90;;;;;;5130986;28;20395;-71
2023/04/23 03:25:34;;;;;;;44.05;29.27;;;11.30;99.90;;;;;;5131183;28;20080;-71
2023/04/23 03:28:00;;;;;;;39.25;28.30;;;11.30;99.90;;;;;;5148537;27;20023;-71
2023/04/23 03:30:26;;;;;;;41.35;29.60;;;11.30;99.90;;;;;;5149055;27;20022;-70
2023/04/23 03:32:54;;;;;;;40.58;27.42;;;11.30;99.90;;;;;;5132520;27;20019;-70
2023/04/23 03:35:20;;;;;;;38.72;28.48;;;11.30;99.90;;;;;;5132376;27;20453;-70
2023/04/23 03:37:46;;;;;;;40.72;29.13;;;11.30;99.90;;;;;;5132996;27;20055;-70
2023/04/23 03:40:12;;;;;;;40.58;28.85;;;11.30;99.90;;;;;;5131586;27;20031;-70
2023/04/23 03:42:37;;;;;;;39.35;26.23;;;11.30;99.90;;;;;;5135597;27;20112;-70
2023/04/23 03:45:03;;;;;;;42.47;28.33;;;11.30;99.90;;;;;;5141999;27;20057;-70
2023/04/23 03:47:29;;;;;;;40.42;26.95;;;11.30;99.90;;;;;;5157125;27;20019;-69
2023/04/23 03:49:55;;;;;;;37.33;27.73;;;11.30;99.90;;;;;;5155592;27;20068;-70
2023/04/23 03:52:21;;;;;;;36.25;26.13;;;11.40;99.90;;;;;;5157108;27;20023;-69
2023/04/23 03:54:47;;;;;;;41.03;28.02;;;11.40;99.90;;;;;;5155564;27;20031;-70
2023/04/23 03:57:13;;;;;;;38.25;28.70;;;11.40;99.90;;;;;;5157112;27;20022;-70
2023/04/23 03:59:39;;;;;;;33.53;24.30;;;11.40;99.90;;;;;;5156169;27;20034;-70
2023/04/23 04:02:05;;;;;;;33.97;24.27;;;11.40;99.90;;;;;;5156896;27;20094;-70
2023/04/23 04:04:31;;;;;;;34.58;25.58;;;11.50;99.90;;;;;;5155870;27;20073;-69
2023/04/23 04:06:59;;;;;;;34.15;25.55;;;11.50;99.90;;;;;;5156601;27;20018;-70
2023/04/23 04:09:25;;;;;;;37.15;27.55;;;11.50;99.90;;;;;;5156434;27;20031;-69
2023/04/23 04:11:55;;;;;;;37.83;27.50;;;11.60;99.90;;;;;;5156460;27;20034;-69
2023/04/23 04:14:22;;;;;;;34.22;25.52;;;11.60;99.90;;;;;;5156115;27;20031;-70
2023/04/23 04:16:48;;;;;;;36.40;25.98;;;11.60;99.90;;;;;;5148544;27;20068;-69
2023/04/23 04:19:15;;;;;;;33.83;25.30;;;11.60;99.90;;;;;;5135722;27;20023;-69
2023/04/23 04:21:40;;;;;;;33.83;24.63;;;11.60;99.90;;;;;;5135856;27;20027;-69
2023/04/23 04:24:06;;;;;;;35.53;25.95;;;11.50;99.90;;;;;;5134574;27;20387;-69
2023/04/23 04:26:33;;;;;;;35.55;25.83;;;11.60;99.90;;;;;;5135668;27;20025;-69
2023/04/23 04:29:00;;;;;;;35.90;27.35;;;11.70;99.90;;;;;;5150412;27;20015;-70
2023/04/23 04:31:27;;;;;;;39.03;27.02;;;11.60;99.90;;;;;;5155173;27;20018;-70
2023/04/23 04:33:54;;;;;;;36.88;26.02;;;11.70;99.90;;;;;;5155552;27;20030;-69
2023/04/23 04:36:20;;;;;;;36.53;25.73;;;11.70;99.90;;;;;;5156148;27;20440;-69
2023/04/23 04:38:46;;;;;;;37.20;25.00;;;11.80;99.90;;;;;;5155897;27;20106;-69
2023/04/23 04:41:12;;;;;;;34.78;25.50;;;11.80;99.90;;;;;;5155124;27;20102;-70
2023/04/23 04:43:39;;;;;;;36.80;26.05;;;11.80;99.90;;;;;;5134369;27;20434;-69
2023/04/23 04:46:05;;;;;;;41.95;24.75;;;11.80;99.90;;;;;;5133485;27;20411;-70
2023/04/23 04:48:30;;;;;;;34.38;25.25;;;11.80;99.90;;;;;;5134877;27;20027;-70
2023/04/23 04:50:56;;;;;;;34.92;26.40;;;11.80;99.90;;;;;;5134179;27;20027;-70
2023/04/23 04:53:22;;;;;;;38.40;25.60;;;11.80;99.90;;;;;;5133754;27;20022;-70
2023/04/23 04:55:48;;;;;;;36.28;25.35;;;11.80;99.90;;;;;;5155709;27;20065;-70
2023/04/23 04:58:14;;;;;;;31.98;23.70;;;11.80;99.90;;;;;;5154563;27;20014;-69
2023/04/23 05:00:40;;;;;;;36.33;25.58;;;11.70;99.90;;;;;;5155725;27;20023;-69
2023/04/23 05:03:06;;;;;;;36.33;26.65;;;11.70;99.90;;;;;;5155722;27;20022;-69
2023/04/23 05:05:32;;;;;;;32.42;23.70;;;11.70;99.90;;;;;;5154950;27;20193;-69
2023/04/23 05:08:00;;;;;;;36.88;25.60;;;11.70;99.90;;;;;;5155709;27;20408;-69
2023/04/23 05:10:27;;;;;;;30.33;23.73;;;11.70;99.90;;;;;;5155325;27;20031;-70
2023/04/23 05:12:53;;;;;;;35.10;23.80;;;11.80;99.90;;;;;;5155784;27;20023;-70
2023/04/23 05:15:18;;;;;;;37.00;24.10;;;11.80;99.90;;;;;;5146288;27;20027;-69
2023/04/23 05:17:44;;;;;;;34.00;25.00;;;11.80;99.90;;;;;;5122144;27;20024;-69
2023/04/23 05:20:10;;;;;;;32.22;23.70;;;11.80;99.90;;;;;;5113348;28;20023;-70
2023/04/23 05:22:37;;;;;;;33.90;22.98;;;11.80;99.90;;;;;;5111539;28;20100;-69
2023/04/23 05:25:04;;;;;;;34.40;23.27;;;11.90;99.90;;;;;;5111997;28;20024;-70
2023/04/23 05:27:30;;;;;;;26.50;20.25;;;11.90;99.90;;;;;;5113043;28;20053;-69
2023/04/23 05:29:55;;;;;;;31.20;22.50;;;11.80;99.90;;;;;;5114216;28;20372;-70
2023/04/23 05:32:22;;;;;;;32.03;22.38;;;11.90;99.90;;;;;;5113225;27;20036;-69
2023/04/23 05:34:47;;;;;;;32.97;22.75;;;11.90;99.90;;;;;;5118359;27;20031;-69
2023/04/23 05:37:13;;;;;;;33.03;23.48;;;11.90;99.90;;;;;;5120025;27;20024;-70
2023/04/23 05:39:39;;;;;;;31.27;22.67;;;11.90;99.90;;;;;;5113526;28;20480;-69
2023/04/23 05:42:04;;;;;;;30.35;21.92;;;11.90;99.90;;;;;;5129139;27;20457;-70
2023/04/23 05:44:30;;;;;;;32.72;22.95;;;11.90;99.90;;;;;;5134285;27;20391;-70
2023/04/23 05:46:56;;;;;;;30.88;22.60;;;11.90;99.90;;;;;;5134038;27;20015;-70
2023/04/23 05:49:22;;;;;;;27.15;20.25;;;11.90;99.90;;;;;;5133407;27;20097;-69
2023/04/23 05:51:47;;;;;;;29.85;20.90;;;12.00;99.90;;;;;;5132080;27;20098;-69
2023/04/23 05:54:13;;;;;;;30.80;20.77;;;12.00;99.90;;;;;;5133801;27;20023;-70
2023/04/23 05:56:39;;;;;;;29.55;20.50;;;12.00;99.90;;;;;;5132802;27;20031;-70
2023/04/23 05:59:05;;;;;;;30.30;20.77;;;12.00;99.90;;;;;;5134080;27;20031;-70
2023/04/23 06:01:31;;;;;;;26.13;19.60;;;12.00;99.90;;;;;;5132883;27;20023;-70
2023/04/23 06:03:56;;;;;;;26.20;20.13;;;12.00;99.90;;;;;;5132785;27;20016;-70
2023/04/23 06:06:22;;;;;;;26.23;18.55;;;12.10;99.90;;;;;;5133561;27;20034;-70
2023/04/23 06:08:49;;;;;;;25.27;16.85;;;12.00;99.90;;;;;;5133899;27;20417;-70
2023/04/23 06:11:15;;;;;;;25.08;18.33;;;12.00;99.90;;;;;;5130939;27;20039;-69
2023/04/23 06:13:41;;;;;;;23.17;16.55;;;12.10;99.90;;;;;;5133329;27;20037;-70
2023/04/23 06:16:08;;;;;;;25.33;17.65;;;12.10;99.90;;;;;;5131276;27;20019;-70
2023/04/23 06:18:35;;;;;;;22.40;15.48;;;12.20;99.90;;;;;;5132881;27;20068;-70
2023/04/23 06:21:03;;;;;;;23.77;16.75;;;12.20;99.90;;;;;;5133868;27;20027;-71
2023/04/23 06:23:30;;;;;;;21.08;14.32;;;12.30;99.90;;;;;;5133324;27;20016;-71
2023/04/23 06:25:55;;;;;;;19.48;14.35;;;12.30;99.90;;;;;;5133755;27;20065;-69
2023/04/23 06:28:21;;;;;;;19.00;13.68;;;12.30;99.90;;;;;;5133459;27;20047;-71
2023/04/23 06:30:47;;;;;;;18.00;13.80;;;12.30;99.90;;;;;;5132653;27;20479;-69
2023/04/23 06:33:13;;;;;;;17.75;13.93;;;12.40;99.90;;;;;;5130085;28;20039;-69
2023/04/23 06:35:39;;;;;;;20.80;13.23;;;12.50;99.90;;;;;;5132991;27;20384;-71
2023/04/23 06:38:05;;;;;;;21.88;12.80;;;12.40;99.90;;;;;;5133704;27;20507;-70
2023/04/23 06:40:31;;;;;;;17.23;12.93;;;12.50;99.90;;;;;;5133454;27;20038;-69
2023/04/23 06:42:57;;;;;;;14.75;11.18;;;12.70;99.90;;;;;;5132254;27;20015;-69
2023/04/23 06:45:23;;;;;;;14.48;10.60;;;12.70;99.90;;;;;;5132187;28;20024;-71
2023/04/23 06:47:49;;;;;;;16.83;10.48;;;12.70;99.90;;;;;;5133126;27;20562;-70
2023/04/23 06:50:15;;;;;;;14.85;8.73;;;12.70;99.90;;;;;;5133543;27;20038;-70
2023/04/23 06:52:42;;;;;;;12.65;8.63;;;12.80;99.90;;;;;;5132852;27;20024;-69
2023/04/23 06:55:08;;;;;;;12.75;8.45;;;12.80;99.90;;;;;;5133185;27;20070;-71
2023/04/23 06:57:34;;;;;;;9.98;8.13;;;13.00;99.90;;;;;;5133479;27;20019;-70
2023/04/23 07:00:00;;;;;;;12.05;8.73;;;13.10;99.90;;;;;;5130218;27;20045;-70
2023/04/23 07:02:26;;;;;;;14.63;7.85;;;13.10;99.90;;;;;;5130337;27;20011;-69
2023/04/23 07:04:51;;;;;;;10.20;7.63;;;13.20;99.90;;;;;;5132463;27;20468;-70
2023/04/23 07:07:17;;;;;;;10.43;6.60;;;13.30;99.90;;;;;;5131840;27;20020;-69
2023/04/23 07:09:43;;;;;;;13.27;6.90;;;13.40;99.90;;;;;;5132758;28;20786;-70
2023/04/23 07:12:09;;;;;;;11.02;6.18;;;13.50;99.90;;;;;;5132609;27;20027;-70
2023/04/23 07:14:35;;;;;;;12.18;6.38;;;13.60;99.90;;;;;;5132024;27;20372;-71
2023/04/23 07:17:00;;;;;;;12.70;6.28;;;13.60;99.90;;;;;;5135748;27;20042;-71
2023/04/23 07:19:26;;;;;;;9.75;5.57;;;13.70;99.90;;;;;;5136457;27;20417;-71
2023/04/23 07:21:52;;;;;;;13.23;6.22;;;13.80;99.90;;;;;;5136333;27;20479;-72
2023/04/23 07:24:18;;;;;;;12.40;5.18;;;13.80;99.90;;;;;;5136230;27;20471;-71
2023/04/23 07:26:44;;;;;;;10.05;5.03;;;14.00;99.90;;;;;;5136665;27;20054;-71
2023/04/23 07:29:10;;;;;;;8.60;4.80;;;14.10;99.90;;;;;;5135882;27;20019;-71
2023/04/23 07:31:38;;;;;;;12.45;4.93;;;14.20;99.90;;;;;;5135553;27;20352;-71
2023/04/23 07:34:03;;;;;;;11.32;5.03;;;14.30;99.90;;;;;;5135422;27;20023;-71
2023/04/23 07:36:30;;;;;;;9.23;4.30;;;14.40;99.90;;;;;;5135080;27;20096;-72
2023/04/23 07:38:56;;;;;;;11.32;4.28;;;14.60;99.90;;;;;;5135323;27;20023;-71
2023/04/23 07:41:22;;;;;;;12.48;4.50;;;14.70;99.90;;;;;;5135771;27;20034;-72
2023/04/23 07:43:48;;;;;;;9.18;3.88;;;14.90;99.90;;;;;;5135388;27;20042;-72
2023/04/23 07:46:13;;;;;;;12.10;3.78;;;15.00;99.90;;;;;;5134823;27;20035;-71
2023/04/23 07:48:39;;;;;;;9.70;3.80;;;15.00;99.90;;;;;;5135215;27;20104;-72
2023/04/23 07:51:05;;;;;;;7.40;3.83;;;15.20;99.90;;;;;;5136167;27;20031;-71
2023/04/23 07:53:31;;;;;;;5.43;3.00;;;15.30;99.90;;;;;;5134103;27;20022;-71
2023/04/23 07:55:57;;;;;;;9.57;4.45;;;15.30;99.90;;;;;;5135054;27;20036;-72
2023/04/23 07:58:24;;;;;;;6.82;3.95;;;15.50;99.90;;;;;;5136020;27;20020;-71
2023/04/23 08:00:50;;;;;;;8.90;3.97;;;15.60;99.90;;;;;;5134267;27;20058;-72
2023/04/23 08:03:16;;;;;;;12.43;4.55;;;15.70;99.90;;;;;;5134844;27;20043;-71
2023/04/23 08:05:41;;;;;;;8.32;3.72;;;15.80;99.90;;;;;;5129087;27;20090;-72
2023/04/23 08:08:07;;;;;;;9.88;4.13;;;15.90;99.90;;;;;;5134466;27;20027;-72
2023/04/23 08:10:34;;;;;;;9.60;4.10;;;16.00;99.90;;;;;;5133825;27;20099;-72
2023/04/23 08:13:01;;;;;;;13.10;4.25;;;16.10;99.90;;;;;;5134037;27;20027;-72
2023/04/23 08:15:26;;;;;;;13.43;3.58;;;16.10;99.90;;;;;;5134821;27;20471;-72
2023/04/23 08:17:52;;;;;;;11.45;3.70;;;16.20;99.90;;;;;;5134325;27;20107;-71
2023/04/23 08:20:18;;;;;;;12.48;3.85;;;16.20;99.90;;;;;;5135042;27;20027;-72
2023/04/23 08:22:44;;;;;;;9.65;3.45;;;16.40;99.90;;;;;;5108450;27;20507;-71
2023/04/23 08:25:11;;;;;;;11.18;3.22;;;16.50;99.90;;;;;;5112650;27;20421;-72
2023/04/23 08:27:37;;;;;;;6.35;3.08;;;16.50;99.90;;;;;;5113065;27;20531;-73
2023/04/23 08:30:05;;;;;;;10.45;3.10;;;16.60;99.90;;;;;;5113105;27;20076;-72
2023/04/23 08:32:31;;;;;;;9.93;3.42;;;16.70;99.90;;;;;;5117472;27;20076;-72
2023/04/23 08:34:57;;;;;;;11.82;3.20;;;16.80;99.90;;;;;;5113904;27;20039;-72
2023/04/23 08:37:23;;;;;;;15.50;3.10;;;16.90;99.90;;;;;;5118209;27;20424;-72
2023/04/23 08:39:49;;;;;;;12.30;3.30;;;17.10;99.90;;;;;;5115740;27;20024;-72
2023/04/23 08:42:37;;;;;;;11.13;3.58;;;17.10;99.90;;;;;;5115799;27;20031;-72
2023/04/23 08:45:03;;;;;;;8.13;3.17;;;17.00;99.90;;;;;;5118693;27;20448;-72
2023/04/23 08:47:31;;;;;;;6.30;3.00;;;17.20;99.90;;;;;;5118780;27;20043;-72
2023/04/23 08:49:58;;;;;;;6.00;2.30;;;17.30;99.90;;;;;;5118539;27;20533;-72
2023/04/23 08:52:25;;;;;;;6.93;3.17;;;17.40;99.90;;;;;;5116045;27;20479;-71
2023/04/23 08:54:53;;;;;;;8.80;2.70;;;17.40;99.90;;;;;;5115908;27;20031;-73
2023/04/23 08:57:20;;;;;;;11.38;3.55;;;17.30;99.90;;;;;;5118631;27;20011;-72
2023/04/23 08:59:46;;;;;;;5.95;2.50;;;17.50;99.90;;;;;;5114864;27;20039;-71
2023/04/23 09:02:14;;;;;;;9.30;2.90;;;17.70;99.90;;;;;;5119190;27;20016;-72
2023/04/23 09:04:40;;;;;;;8.40;2.55;;;17.80;99.90;;;;;;5116595;27;20024;-72
2023/04/23 09:07:10;;;;;;;9.05;2.78;;;18.00;99.90;;;;;;5116436;27;20036;-72
2023/04/23 09:09:40;;;;;;;6.80;2.05;;;18.00;99.90;;;;;;5118324;27;20023;-72
2023/04/23 09:12:07;;;;;;;10.98;2.75;;;18.10;99.90;;;;;;5119987;27;20031;-72
2023/04/23 09:14:33;;;;;;;5.05;1.92;;;18.30;99.90;;;;;;5120538;27;20387;-73
2023/04/23 09:17:00;;;;;;;6.88;2.17;;;18.40;99.90;;;;;;5117762;27;20435;-72
2023/04/23 09:19:26;;;;;;;7.07;2.05;;;18.60;99.90;;;;;;5114470;27;20034;-73
2023/04/23 09:21:53;;;;;;;5.55;2.08;;;18.60;99.90;;;;;;5116282;27;20031;-73
2023/04/23 09:24:21;;;;;;;8.65;2.47;;;18.40;99.90;;;;;;5112735;27;20023;-73
2023/04/23 09:26:49;;;;;;;5.28;2.20;;;18.20;99.90;;;;;;5121904;27;20110;-73
2023/04/23 09:29:17;;;;;;;4.88;1.98;;;18.30;99.90;;;;;;5117348;27;20027;-72
2023/04/23 09:31:48;;;;;;;10.50;2.17;;;18.40;99.90;;;;;;5112037;27;20475;-73
2023/04/23 09:34:17;;;;;;;8.25;2.58;;;18.60;99.90;;;;;;5115170;27;20035;-72
2023/04/23 09:36:44;;;;;;;6.53;2.35;;;18.60;99.90;;;;;;5119116;27;20484;-71
2023/04/23 09:39:20;;;;;;;6.05;2.10;;;18.50;99.90;;;;;;5117407;27;20015;-71
2023/04/23 09:41:46;;;;;;;8.02;2.35;;;18.40;99.90;;;;;;5120847;27;20031;-71
2023/04/23 09:44:17;;;;;;;8.27;2.85;;;18.20;99.90;;;;;;5117275;27;20114;-71
2023/04/23 09:46:43;;;;;;;5.72;2.40;;;18.20;99.90;;;;;;5119650;27;20066;-72
2023/04/23 09:49:11;;;;;;;6.93;2.50;;;18.30;99.90;;;;;;5120971;27;20440;-72
2023/04/23 09:51:42;;;;;;;7.18;2.40;;;18.50;99.90;;;;;;5116458;27;20032;-72
2023/04/23 09:54:24;;;;;;;7.65;2.60;;;18.60;99.90;;;;;;5115961;27;20059;-72
2023/04/23 09:57:01;;;;;;;4.55;2.47;;;18.60;99.90;;;;;;5116040;27;20058;-71
2023/04/23 09:59:29;;;;;;;6.18;2.42;;;18.40;99.90;;;;;;5118009;27;20011;-71
2023/04/23 10:01:55;;;;;;;5.78;2.20;;;18.70;99.90;;;;;;5119127;27;20042;-71
2023/04/23 10:04:24;;;;;;;7.68;2.72;;;18.80;99.90;;;;;;5115364;27;20471;-72
2023/04/23 10:07:00;;;;;;;11.98;2.90;;;19.00;99.90;;;;;;5117570;27;20023;-71
2023/04/23 10:09:27;;;;;;;7.10;2.85;;;19.20;99.90;;;;;;5118336;27;20014;-71
2023/04/23 10:11:55;;;;;;;4.03;2.33;;;19.30;99.90;;;;;;5116612;27;20023;-72
2023/04/23 10:14:22;;;;;;;5.38;2.10;;;19.30;99.90;;;;;;5119600;27;20588;-72
2023/04/23 10:16:50;;;;;;;9.48;2.83;;;18.90;99.90;;;;;;5118467;27;20498;-72
2023/04/23 10:19:24;;;;;;;5.32;2.15;;;18.80;99.90;;;;;;5118679;27;20022;-72
2023/04/23 10:21:59;;;;;;;10.40;2.70;;;18.90;99.90;;;;;;5117472;27;20023;-72
2023/04/23 10:24:29;;;;;;;6.53;2.60;;;18.90;99.90;;;;;;5116908;27;20027;-72
2023/04/23 10:26:59;;;;;;;10.20;2.95;;;18.80;99.90;;;;;;5115428;27;20051;-71
2023/04/23 10:29:28;;;;;;;5.25;1.98;;;18.90;99.90;;;;;;5118551;27;20031;-70
2023/04/23 10:31:56;;;;;;;6.38;2.15;;;18.90;99.90;;;;;;5112736;27;20058;-71
2023/04/23 10:34:24;;;;;;;6.10;2.20;;;19.00;99.90;;;;;;5113831;27;20031;-71
2023/04/23 10:36:50;;;;;;;5.10;1.65;;;19.30;99.90;;;;;;5113144;27;20024;-71
2023/04/23 10:39:18;;;;;;;4.47;2.15;;;19.40;99.90;;;;;;5114554;28;20034;-71
2023/04/23 10:41:45;;;;;;;6.75;2.15;;;19.50;99.90;;;;;;5113177;28;20024;-72
2023/04/23 10:44:12;;;;;;;8.77;1.95;;;19.70;99.90;;;;;;5114569;27;20072;-72
2023/04/23 10:46:38;;;;;;;4.03;1.85;;;19.50;99.90;;;;;;5114470;28;20020;-71
2023/04/23 10:49:15;;;;;;;5.10;1.50;;;19.50;99.90;;;;;;5128368;28;20031;-71
2023/04/23 10:51:44;;;;;;;6.88;2.63;;;19.60;99.90;;;;;;5135359;27;20019;-72
2023/04/23 10:54:13;;;;;;;6.38;2.38;;;19.40;99.90;;;;;;5128370;27;20057;-72
2023/04/23 10:56:40;;;;;;;9.95;2.22;;;19.50;99.90;;;;;;5116082;27;20073;-72
2023/04/23 10:59:08;;;;;;;5.50;2.40;;;19.40;99.90;;;;;;5114428;28;20024;-72
2023/04/23 11:01:33;;;;;;;7.18;1.90;;;19.40;99.90;;;;;;5125609;27;20023;-72
2023/04/23 11:04:21;;;;;;;5.65;1.70;;;19.40;99.90;;;;;;5136347;27;20026;-72
2023/04/23 11:06:47;;;;;;;5.45;1.75;;;19.30;99.90;;;;;;5135614;27;20034;-72
2023/04/23 11:09:35;;;;;;;4.45;1.95;;;19.40;99.90;;;;;;5136880;27;20027;-72
2023/04/23 11:12:04;;;;;;;7.47;2.13;;;19.30;99.90;;;;;;5132031;27;20066;-72
2023/04/23 11:14:35;;;;;;;6.47;1.80;;;19.40;99.90;;;;;;5129616;27;20061;-73
2023/04/23 11:17:02;;;;;;;4.30;2.00;;;19.40;99.90;;;;;;5136678;27;20024;-72
2023/04/23 11:19:28;;;;;;;3.80;1.73;;;19.50;99.90;;;;;;5133173;27;20072;-72
2023/04/23 11:22:03;;;;;;;8.43;1.73;;;19.60;99.90;;;;;;5136887;27;20027;-73
2023/04/23 11:24:31;;;;;;;4.40;1.70;;;19.80;99.90;;;;;;5135858;27;20367;-72
2023/04/23 11:26:58;;;;;;;6.63;2.22;;;20.00;99.90;;;;;;5136701;27;20011;-72
2023/04/23 11:29:25;;;;;;;4.90;1.60;;;20.00;99.90;;;;;;5136058;27;20027;-72
2023/04/23 11:31:52;;;;;;;4.40;1.90;;;20.10;99.90;;;;;;5134720;27;20148;-72
2023/04/23 11:34:18;;;;;;;8.30;2.00;;;20.10;99.90;;;;;;5136085;27;20035;-72
2023/04/23 11:36:47;;;;;;;4.28;1.52;;;20.00;99.90;;;;;;5135989;27;20019;-72
2023/04/23 11:39:13;;;;;;;9.02;2.22;;;19.70;99.90;;;;;;5133338;27;20774;-72
2023/04/23 11:41:38;;;;;;;6.40;1.80;;;19.70;99.90;;;;;;5135893;27;20487;-72
2023/04/23 11:44:05;;;;;;;3.70;1.75;;;19.60;99.90;;;;;;5135970;27;20031;-72
2023/04/23 11:46:31;;;;;;;8.77;1.80;;;19.60;99.90;;;;;;5135770;27;20022;-72
2023/04/23 11:48:59;;;;;;;5.78;1.40;;;19.90;99.90;;;;;;5135814;27;20101;-72
2023/04/23 11:51:26;;;;;;;3.25;1.52;;;19.90;99.90;;;;;;5135174;27;20356;-72
2023/04/23 11:53:51;;;;;;;7.93;1.80;;;20.20;99.90;;;;;;5135991;27;20045;-72
2023/04/23 11:56:19;;;;;;;5.30;2.42;;;20.40;99.90;;;;;;5136293;27;20027;-72
2023/04/23 11:58:44;;;;;;;6.22;1.80;;;20.50;99.90;;;;;;5135158;27;20076;-72
2023/04/23 12:01:12;;;;;;;8.10;2.35;;;20.60;99.90;;;;;;5135689;27;20023;-72
2023/04/23 12:03:39;;;;;;;6.88;1.48;;;20.90;99.90;;;;;;5134288;27;20037;-72
2023/04/23 12:06:06;;;;;;;5.70;2.08;;;20.90;99.90;;;;;;5133931;27;20091;-72
2023/04/23 12:08:39;;;;;;;6.78;1.90;;;20.90;99.90;;;;;;5132685;27;20111;-72
2023/04/23 12:11:05;;;;;;;;;;;20.70;99.90;;;;;;5128382;27;20030;-72
2023/04/23 12:13:35;;;;;;;3.40;2.03;;;20.90;99.90;;;;;;5113845;28;19919;-72
2023/04/23 12:16:02;;;;;;;5.18;1.60;;;21.10;99.90;;;;;;5122417;27;20062;-72
2023/04/23 12:18:37;;;;;;;5.75;1.48;;;21.10;99.90;;;;;;5136063;27;20016;-72
2023/04/23 12:21:13;;;;;;;8.52;2.97;;;20.70;99.90;;;;;;5134243;27;20428;-72
2023/04/23 12:23:40;;;;;;;6.55;1.80;;;20.60;99.90;;;;;;5135548;27;20050;-71
2023/04/23 12:26:15;;;;;;;5.28;1.67;;;20.30;99.90;;;;;;5135570;27;20464;-71
2023/04/23 12:28:50;;;;;;;6.05;1.60;;;20.30;99.90;;;;;;5135897;27;20034;-72
2023/04/23 12:31:24;;;;;;;4.70;1.70;;;20.20;99.90;;;;;;5135554;27;20055;-72
2023/04/23 12:33:57;;;;;;;9.88;2.88;;;20.30;99.90;;;;;;5131281;27;20023;-72